createdAt,value
2018-11-13T00:00:10.615Z,14.00
2018-11-13T00:02:38.858Z,14.00
2018-11-13T00:05:07.093Z,14.00
2018-11-13T00:07:36.123Z,14.10
2018-11-13T00:10:04.363Z,14.10
2018-11-13T00:12:33.385Z,14.10
2018-11-13T00:15:01.626Z,14.10
2018-11-13T00:17:30.639Z,14.20
2018-11-13T00:19:58.883Z,14.20
2018-11-13T00:22:27.892Z,14.20
2018-11-13T00:24:57.167Z,14.10
2018-11-13T00:27:25.479Z,14.10
2018-11-13T00:29:53.750Z,14.00
2018-11-13T00:32:22.005Z,14.00
2018-11-13T00:34:51.023Z,14.10
2018-11-13T00:37:19.270Z,14.10
2018-11-13T00:39:48.387Z,14.20
2018-11-13T00:42:16.589Z,14.10
2018-11-13T00:44:44.830Z,14.30
2018-11-13T00:47:13.071Z,14.30
2018-11-13T00:49:41.343Z,14.40
2018-11-13T00:52:09.619Z,14.30
2018-11-13T00:54:37.904Z,14.20
2018-11-13T00:57:06.146Z,14.20
2018-11-13T00:59:34.378Z,14.20
2018-11-13T01:02:02.745Z,14.40
2018-11-13T01:04:32.462Z,14.40
2018-11-13T01:07:01.467Z,14.30
2018-11-13T01:09:29.735Z,14.30
2018-11-13T01:11:58.342Z,14.30
2018-11-13T01:14:27.025Z,14.30
2018-11-13T01:16:55.269Z,14.30
2018-11-13T01:19:24.586Z,14.50
2018-11-13T01:21:53.277Z,14.40
2018-11-13T01:24:21.737Z,14.50
2018-11-13T01:26:50.758Z,14.50
2018-11-13T01:29:19.068Z,14.50
2018-11-13T01:31:47.344Z,14.60
2018-11-13T01:34:15.672Z,14.50
2018-11-13T01:36:43.932Z,14.50
2018-11-13T01:39:12.195Z,14.40
2018-11-13T01:41:41.255Z,14.40
2018-11-13T01:44:10.186Z,14.30
2018-11-13T01:46:39.248Z,14.40
2018-11-13T01:49:07.505Z,14.30
2018-11-13T01:51:35.762Z,14.40
2018-11-13T01:54:04.049Z,14.50
2018-11-13T01:56:32.274Z,14.70
2018-11-13T01:59:01.279Z,15.00
2018-11-13T02:01:29.542Z,15.00
2018-11-13T02:03:58.547Z,14.90
2018-11-13T02:06:26.806Z,14.90
2018-11-13T02:08:55.842Z,14.70
2018-11-13T02:11:24.089Z,14.70
2018-11-13T02:13:52.905Z,14.60
2018-11-13T02:16:21.160Z,14.50
2018-11-13T02:18:49.505Z,14.50
2018-11-13T02:21:17.731Z,14.60
2018-11-13T02:23:45.995Z,14.70
2018-11-13T02:26:14.258Z,14.70
2018-11-13T02:28:42.498Z,14.60
2018-11-13T02:31:10.844Z,14.70
2018-11-13T02:33:39.070Z,14.70
2018-11-13T02:36:08.104Z,14.80
2018-11-13T02:38:36.354Z,14.70
2018-11-13T02:41:04.621Z,14.80
2018-11-13T02:43:32.894Z,14.90
2018-11-13T02:46:02.112Z,14.70
2018-11-13T02:48:30.374Z,14.60
2018-11-13T02:50:58.621Z,14.50
2018-11-13T02:53:27.687Z,14.50
2018-11-13T02:55:55.941Z,14.50
2018-11-13T02:58:24.222Z,14.50
2018-11-13T03:00:52.466Z,14.50
2018-11-13T03:03:20.723Z,14.40
2018-11-13T03:05:49.754Z,14.40
2018-11-13T03:08:18.027Z,14.40
2018-11-13T03:10:46.266Z,14.50
2018-11-13T03:13:15.268Z,14.60
2018-11-13T03:15:43.553Z,14.60
2018-11-13T03:18:11.788Z,14.70
2018-11-13T03:20:40.098Z,14.80
2018-11-13T03:23:08.339Z,14.90
2018-11-13T03:25:36.615Z,14.90
2018-11-13T03:28:05.587Z,15.00
2018-11-13T03:30:33.832Z,14.90
2018-11-13T03:33:02.100Z,14.90
2018-11-13T03:35:30.354Z,15.00
2018-11-13T03:37:59.372Z,15.00
2018-11-13T03:40:27.632Z,15.00
2018-11-13T03:42:55.900Z,15.00
2018-11-13T03:45:24.146Z,14.80
2018-11-13T03:47:52.414Z,14.80
2018-11-13T03:50:20.651Z,14.70
2018-11-13T03:52:48.913Z,14.80
2018-11-13T03:55:17.178Z,14.80
2018-11-13T03:57:45.417Z,14.90
2018-11-13T04:00:13.677Z,14.90
2018-11-13T04:02:41.919Z,14.90
2018-11-13T04:05:10.189Z,14.90
2018-11-13T04:07:38.443Z,14.90
2018-11-13T04:10:07.455Z,14.80
2018-11-13T04:12:35.725Z,14.80
2018-11-13T04:15:04.862Z,14.90
2018-11-13T04:17:33.098Z,14.90
2018-11-13T04:20:01.334Z,15.00
2018-11-13T04:22:29.598Z,15.00
2018-11-13T04:24:57.844Z,15.00
2018-11-13T04:27:26.118Z,15.10
2018-11-13T04:29:54.379Z,15.10
2018-11-13T04:32:22.618Z,15.10
2018-11-13T04:34:51.645Z,15.00
2018-11-13T04:37:19.913Z,15.00
2018-11-13T04:39:48.149Z,14.90
2018-11-13T04:42:17.150Z,14.90
2018-11-13T04:44:46.191Z,15.00
2018-11-13T04:47:14.488Z,15.00
2018-11-13T04:49:42.745Z,14.90
2018-11-13T04:52:11.016Z,14.90
2018-11-13T04:54:39.250Z,15.00
2018-11-13T04:57:08.279Z,15.00
2018-11-13T04:59:36.541Z,14.90
2018-11-13T05:02:04.775Z,15.00
2018-11-13T05:04:33.806Z,15.10
2018-11-13T05:07:02.058Z,15.10
2018-11-13T05:09:31.074Z,15.00
2018-11-13T05:11:59.326Z,15.00
2018-11-13T05:14:28.367Z,15.10
2018-11-13T05:16:56.607Z,15.10
2018-11-13T05:19:25.618Z,15.00
2018-11-13T05:21:53.871Z,15.00
2018-11-13T05:24:23.330Z,15.00
2018-11-13T05:26:51.554Z,15.00
2018-11-13T05:29:20.059Z,14.90
2018-11-13T05:31:48.314Z,14.90
2018-11-13T05:34:16.550Z,14.90
2018-11-13T05:36:45.071Z,14.90
2018-11-13T05:39:13.362Z,14.90
2018-11-13T05:41:41.628Z,14.90
2018-11-13T05:44:09.858Z,14.90
2018-11-13T05:46:38.886Z,15.00
2018-11-13T05:49:07.130Z,15.00
2018-11-13T05:51:36.179Z,15.00
2018-11-13T05:54:04.423Z,14.90
2018-11-13T05:56:32.684Z,14.90
2018-11-13T05:59:01.713Z,14.90
2018-11-13T06:01:29.948Z,14.90
2018-11-13T06:03:58.970Z,14.90
2018-11-13T06:06:27.212Z,14.90
2018-11-13T06:08:56.539Z,14.90
2018-11-13T06:11:24.776Z,14.90
2018-11-13T06:13:53.089Z,15.00
2018-11-13T06:16:21.262Z,15.00
2018-11-13T06:18:49.503Z,15.00
2018-11-13T06:21:18.555Z,14.90
2018-11-13T06:23:46.835Z,14.90
2018-11-13T06:26:15.145Z,14.90
2018-11-13T06:28:44.122Z,15.00
2018-11-13T06:31:12.647Z,15.00
2018-11-13T06:33:40.898Z,15.00
2018-11-13T06:36:09.915Z,14.90
2018-11-13T06:38:38.232Z,14.90
2018-11-13T06:41:07.174Z,14.70
2018-11-13T06:43:35.418Z,14.70
2018-11-13T06:46:03.673Z,14.70
2018-11-13T06:48:31.909Z,14.60
2018-11-13T06:51:00.936Z,14.70
2018-11-13T06:53:29.235Z,14.70
2018-11-13T06:55:57.458Z,14.80
2018-11-13T06:58:25.714Z,14.80
2018-11-13T07:00:53.989Z,14.80
2018-11-13T07:03:22.982Z,14.70
2018-11-13T07:05:51.232Z,14.70
2018-11-13T07:08:19.516Z,14.70
2018-11-13T07:10:47.869Z,14.70
2018-11-13T07:13:16.753Z,14.70
2018-11-13T07:15:45.023Z,14.60
2018-11-13T07:18:14.083Z,14.70
2018-11-13T07:20:42.320Z,14.70
2018-11-13T07:23:10.573Z,14.80
2018-11-13T07:25:38.828Z,14.70
2018-11-13T07:28:07.664Z,14.70
2018-11-13T07:30:35.870Z,14.70
2018-11-13T07:33:04.142Z,14.70
2018-11-13T07:35:32.447Z,14.50
2018-11-13T07:38:00.723Z,14.60
2018-11-13T07:40:28.982Z,14.50
2018-11-13T07:42:57.238Z,14.40
2018-11-13T07:45:25.497Z,14.40
2018-11-13T07:47:54.587Z,14.30
2018-11-13T07:50:23.517Z,14.30
2018-11-13T07:52:51.786Z,14.20
2018-11-13T07:55:20.059Z,14.00
2018-11-13T07:57:48.311Z,13.90
2018-11-13T08:00:16.798Z,13.90
2018-11-13T08:02:45.793Z,13.80
2018-11-13T08:05:14.027Z,13.70
2018-11-13T08:07:42.296Z,13.70
2018-11-13T08:10:10.538Z,13.70
2018-11-13T08:12:38.807Z,13.70
2018-11-13T08:15:08.295Z,13.70
2018-11-13T08:17:36.566Z,13.70
2018-11-13T08:20:05.186Z,13.80
2018-11-13T08:22:33.395Z,13.90
2018-11-13T08:25:01.662Z,14.00
2018-11-13T08:27:30.703Z,14.10
2018-11-13T08:29:58.970Z,14.20
2018-11-13T08:32:28.390Z,14.30
2018-11-13T08:34:56.711Z,14.30
2018-11-13T08:37:24.894Z,14.50
2018-11-13T08:39:53.921Z,14.60
2018-11-13T08:42:22.180Z,14.60
2018-11-13T08:44:50.431Z,14.50
2018-11-13T08:47:18.700Z,14.50
2018-11-13T08:49:46.945Z,14.50
2018-11-13T08:52:15.198Z,14.70
2018-11-13T08:54:43.464Z,14.70
2018-11-13T08:57:11.703Z,14.70
2018-11-13T08:59:40.078Z,14.70
2018-11-13T09:02:08.203Z,14.80
2018-11-13T09:04:36.458Z,14.80
2018-11-13T09:07:04.707Z,14.80
2018-11-13T09:09:33.726Z,14.70
2018-11-13T09:12:02.132Z,14.70
2018-11-13T09:14:31.014Z,14.70
2018-11-13T09:16:59.293Z,14.70
2018-11-13T09:19:27.770Z,14.60
2018-11-13T09:21:56.559Z,14.80
2018-11-13T09:24:24.806Z,14.70
2018-11-13T09:26:53.066Z,14.80
2018-11-13T09:29:23.060Z,14.90
2018-11-13T09:31:51.402Z,14.90
2018-11-13T09:34:19.643Z,15.00
2018-11-13T09:36:47.899Z,15.00
2018-11-13T09:39:16.859Z,15.00
2018-11-13T09:41:45.071Z,15.00
2018-11-13T09:44:14.082Z,15.10
2018-11-13T09:46:42.389Z,15.10
2018-11-13T09:49:10.646Z,15.00
2018-11-13T09:51:38.889Z,15.00
2018-11-13T09:54:07.350Z,15.00
2018-11-13T09:56:35.651Z,15.00
2018-11-13T09:59:03.891Z,15.00
2018-11-13T10:01:32.637Z,15.00
2018-11-13T10:04:01.088Z,15.10
2018-11-13T10:06:28.643Z,15.10
2018-11-13T10:08:57.691Z,15.20
2018-11-13T10:11:25.926Z,15.20
2018-11-13T10:13:54.945Z,15.30
2018-11-13T10:16:23.187Z,15.30
2018-11-13T10:18:52.214Z,15.40
2018-11-13T10:21:20.482Z,15.40
2018-11-13T10:23:48.867Z,15.40
2018-11-13T10:26:17.202Z,15.20
2018-11-13T10:28:45.497Z,15.20
2018-11-13T10:31:14.625Z,15.20
2018-11-13T10:33:43.135Z,15.20
2018-11-13T10:36:11.394Z,15.20
2018-11-13T10:38:39.665Z,15.10
2018-11-13T10:41:08.034Z,15.00
2018-11-13T10:43:36.316Z,15.00
2018-11-13T10:46:04.741Z,15.20
2018-11-13T10:48:33.148Z,15.20
2018-11-13T10:51:01.651Z,15.20
2018-11-13T10:53:29.898Z,15.30
2018-11-13T10:55:58.165Z,15.30
2018-11-13T10:58:26.422Z,15.30
2018-11-13T11:00:54.696Z,15.30
2018-11-13T11:03:23.768Z,15.40
2018-11-13T11:05:52.088Z,15.30
2018-11-13T11:08:21.306Z,15.30
2018-11-13T11:10:49.568Z,15.30
2018-11-13T11:13:17.932Z,15.30
2018-11-13T11:15:46.944Z,15.20
2018-11-13T11:18:15.261Z,15.30
2018-11-13T11:20:43.637Z,15.30
2018-11-13T11:23:12.183Z,15.20
2018-11-13T11:25:40.433Z,15.10
2018-11-13T11:28:09.477Z,15.20
2018-11-13T11:30:38.525Z,15.40
2018-11-13T11:33:06.783Z,15.40
2018-11-13T11:35:35.104Z,15.50
2018-11-13T11:38:03.549Z,15.60
2018-11-13T11:40:32.762Z,15.80
2018-11-13T11:43:01.212Z,15.80
2018-11-13T11:45:30.397Z,15.80
2018-11-13T11:47:58.777Z,15.80
2018-11-13T11:50:27.877Z,15.90
2018-11-13T11:52:56.418Z,16.00
2018-11-13T11:55:24.774Z,16.10
2018-11-13T11:57:53.015Z,16.30
2018-11-13T12:00:22.157Z,16.50
2018-11-13T12:02:51.519Z,16.50
2018-11-13T12:05:19.772Z,16.40
2018-11-13T12:07:48.104Z,16.50
2018-11-13T12:10:16.661Z,16.50
2018-11-13T12:12:44.912Z,16.50
2018-11-13T12:15:13.162Z,16.40
2018-11-13T12:17:41.440Z,16.40
2018-11-13T12:20:09.713Z,16.30
2018-11-13T12:22:37.983Z,16.20
2018-11-13T12:25:06.227Z,16.10
2018-11-13T12:27:34.534Z,16.00
2018-11-13T12:30:02.794Z,16.00
2018-11-13T12:32:31.105Z,16.10
2018-11-13T12:34:59.420Z,16.20
2018-11-13T12:37:27.693Z,16.20
2018-11-13T12:39:56.012Z,16.40
2018-11-13T12:42:24.314Z,16.50
2018-11-13T12:44:52.603Z,16.60
2018-11-13T12:47:21.611Z,16.50
2018-11-13T12:49:50.132Z,16.50
2018-11-13T12:52:18.518Z,16.40
2018-11-13T12:54:46.798Z,16.40
2018-11-13T12:57:16.261Z,16.30
2018-11-13T12:59:44.617Z,16.30
2018-11-13T13:02:13.015Z,16.30
2018-11-13T13:04:41.170Z,16.50
2018-11-13T13:07:09.269Z,16.50
2018-11-13T13:09:37.611Z,16.50
2018-11-13T13:12:05.882Z,16.40
2018-11-13T13:14:36.126Z,16.50
2018-11-13T13:17:04.472Z,16.50
2018-11-13T13:19:32.717Z,16.40
2018-11-13T13:22:01.070Z,16.20
2018-11-13T13:24:29.704Z,16.10
2018-11-13T13:26:57.981Z,16.20
2018-11-13T13:29:27.092Z,16.20
2018-11-13T13:31:55.562Z,16.30
2018-11-13T13:34:23.982Z,16.40
2018-11-13T13:36:52.516Z,16.40
2018-11-13T13:39:20.778Z,16.30
2018-11-13T13:41:49.224Z,16.30
2018-11-13T13:44:17.582Z,16.30
2018-11-13T13:46:45.914Z,16.30
2018-11-13T13:49:14.229Z,16.30
2018-11-13T13:51:42.546Z,16.50
2018-11-13T13:54:11.758Z,16.50
2018-11-13T13:56:39.872Z,16.60
2018-11-13T13:59:08.227Z,16.70
2018-11-13T14:01:36.513Z,16.70
2018-11-13T14:04:05.559Z,16.90
2018-11-13T14:06:33.928Z,16.90
2018-11-13T14:09:02.226Z,17.10
2018-11-13T14:11:30.646Z,17.30
2018-11-13T14:13:58.860Z,17.40
2018-11-13T14:16:27.223Z,17.50
2018-11-13T14:18:55.578Z,17.60
2018-11-13T14:21:23.927Z,17.70
2018-11-13T14:23:52.509Z,17.80
2018-11-13T14:26:22.055Z,17.90
2018-11-13T14:28:52.931Z,18.00
2018-11-13T14:31:21.231Z,17.90
2018-11-13T14:33:50.307Z,17.70
2018-11-13T14:36:18.862Z,17.70
2018-11-13T14:38:47.139Z,17.60
2018-11-13T14:41:16.571Z,17.30
2018-11-13T14:43:44.978Z,17.10
2018-11-13T14:46:14.137Z,16.90
2018-11-13T14:48:42.389Z,16.90
2018-11-13T14:51:10.740Z,16.80
2018-11-13T14:53:39.041Z,16.70
2018-11-13T14:56:08.353Z,16.50
2018-11-13T14:58:37.930Z,16.40
2018-11-13T15:01:06.287Z,16.30
2018-11-13T15:03:35.323Z,16.40
2018-11-13T15:06:03.675Z,16.30
2018-11-13T15:08:31.953Z,16.40
2018-11-13T15:11:00.256Z,16.40
2018-11-13T15:13:28.660Z,16.40
2018-11-13T15:15:56.914Z,16.30
2018-11-13T15:18:25.250Z,16.30
2018-11-13T15:20:53.602Z,16.20
2018-11-13T15:23:21.884Z,16.20
2018-11-13T15:25:51.212Z,16.10
2018-11-13T15:28:19.626Z,16.10
2018-11-13T15:30:47.919Z,16.10
2018-11-13T15:33:16.352Z,16.20
2018-11-13T15:35:44.656Z,16.10
2018-11-13T15:38:13.665Z,15.90
2018-11-13T15:40:42.294Z,15.90
2018-11-13T15:43:11.508Z,15.70
2018-11-13T15:45:43.489Z,15.70
2018-11-13T15:48:11.796Z,15.80
2018-11-13T15:50:44.290Z,15.90
2018-11-13T15:53:12.562Z,15.90
2018-11-13T15:55:41.099Z,15.90
2018-11-13T15:58:09.828Z,15.90
2018-11-13T16:00:38.243Z,16.00
2018-11-13T16:03:06.500Z,15.90
2018-11-13T16:05:34.790Z,15.80
2018-11-13T16:08:03.041Z,15.60
2018-11-13T16:10:31.297Z,15.50
2018-11-13T16:12:59.558Z,15.30
2018-11-13T16:15:28.678Z,15.20
2018-11-13T16:17:56.971Z,15.20
2018-11-13T16:20:31.121Z,15.20
2018-11-13T16:23:05.350Z,15.20
2018-11-13T16:25:39.686Z,15.10
2018-11-13T16:28:13.962Z,15.10
2018-11-13T16:30:49.192Z,14.90
2018-11-13T16:33:23.387Z,14.90
2018-11-13T16:35:57.531Z,14.80
2018-11-13T16:38:32.747Z,14.40
2018-11-13T16:41:06.953Z,14.40
2018-11-13T16:43:41.114Z,14.30
2018-11-13T16:46:15.366Z,14.10
2018-11-13T16:48:50.414Z,13.90
2018-11-13T16:51:25.420Z,13.90
2018-11-13T16:54:00.535Z,13.90
2018-11-13T16:56:34.706Z,13.90
2018-11-13T16:59:08.759Z,13.80
2018-11-13T17:01:43.046Z,13.80
2018-11-13T17:04:18.066Z,13.70
2018-11-13T17:06:52.508Z,13.70
2018-11-13T17:09:27.382Z,13.70
2018-11-13T17:12:02.442Z,13.60
2018-11-13T17:14:36.874Z,13.60
2018-11-13T17:17:11.001Z,13.50
2018-11-13T17:19:45.329Z,13.50
2018-11-13T17:22:19.627Z,13.40
2018-11-13T17:24:53.941Z,13.40
2018-11-13T17:27:28.318Z,13.20
2018-11-13T17:30:02.531Z,13.20
2018-11-13T17:32:36.767Z,13.20
2018-11-13T17:35:10.898Z,13.10
2018-11-13T17:37:45.259Z,13.10
2018-11-13T17:40:19.582Z,13.10
2018-11-13T17:42:53.719Z,13.00
2018-11-13T17:45:28.036Z,13.00
2018-11-13T17:48:02.319Z,12.90
2018-11-13T17:54:10.076Z,12.80
2018-11-13T17:56:38.328Z,12.80
2018-11-13T17:59:06.698Z,12.60
2018-11-13T18:01:35.785Z,12.50
2018-11-13T18:04:04.799Z,12.40
2018-11-13T18:06:33.059Z,12.40
2018-11-13T18:09:01.337Z,12.40
2018-11-13T18:11:30.350Z,12.50
2018-11-13T18:13:58.638Z,12.40
2018-11-13T18:16:26.903Z,12.50
2018-11-13T18:18:55.479Z,12.50
2018-11-13T18:21:23.788Z,12.50
2018-11-13T18:23:52.751Z,12.50
2018-11-13T18:26:21.015Z,12.60
2018-11-13T18:28:49.470Z,12.50
2018-11-13T18:31:18.518Z,12.40
2018-11-13T18:33:46.767Z,12.40
2018-11-13T18:36:15.301Z,12.40
2018-11-13T18:38:44.817Z,12.40
2018-11-13T18:41:13.343Z,12.40
2018-11-13T18:43:43.281Z,12.40
2018-11-13T18:46:11.516Z,12.40
2018-11-13T18:48:43.897Z,12.30
2018-11-13T18:51:13.247Z,12.00
2018-11-13T18:53:42.669Z,12.00
2018-11-13T18:56:11.234Z,11.90
2018-11-13T18:58:39.508Z,11.90
2018-11-13T19:01:07.986Z,11.70
2018-11-13T19:03:37.296Z,11.50
2018-11-13T19:06:05.530Z,11.50
2018-11-13T19:08:34.963Z,11.50
2018-11-13T19:11:04.415Z,11.60
2018-11-13T19:13:33.631Z,11.70
2018-11-13T19:16:02.059Z,11.60
2018-11-13T19:18:30.513Z,11.70
2018-11-13T19:20:59.373Z,11.70
2018-11-13T19:23:27.642Z,11.70
2018-11-13T19:25:55.884Z,11.70
2018-11-13T19:28:24.940Z,11.70
2018-11-13T19:30:53.250Z,11.70
2018-11-13T19:33:21.448Z,11.70
2018-11-13T19:35:49.886Z,11.70
2018-11-13T19:38:18.022Z,11.70
2018-11-13T19:40:46.258Z,11.60
2018-11-13T19:43:14.837Z,11.60
2018-11-13T19:45:43.559Z,11.40
2018-11-13T19:48:11.818Z,11.40
2018-11-13T19:50:40.586Z,11.40
2018-11-13T19:53:08.347Z,11.40
2018-11-13T19:55:37.392Z,11.20
2018-11-13T19:58:05.716Z,11.20
2018-11-13T20:00:33.909Z,11.20
2018-11-13T20:03:03.182Z,11.10
2018-11-13T20:05:32.199Z,11.10
2018-11-13T20:08:00.487Z,11.10
2018-11-13T20:10:28.853Z,11.10
2018-11-13T20:12:57.658Z,11.10
2018-11-13T20:15:25.983Z,11.00
2018-11-13T20:17:55.049Z,10.80
2018-11-13T20:20:23.314Z,10.80
2018-11-13T20:22:52.408Z,10.80
2018-11-13T20:25:20.697Z,10.60
2018-11-13T20:27:50.462Z,10.60
2018-11-13T20:30:18.724Z,10.60
2018-11-13T20:32:47.776Z,10.60
2018-11-13T20:35:16.268Z,10.60
2018-11-13T20:37:44.622Z,10.50
2018-11-13T20:40:12.786Z,10.60
2018-11-13T20:42:41.055Z,10.50
2018-11-13T20:45:09.306Z,10.50
2018-11-13T20:47:37.579Z,10.40
2018-11-13T20:50:05.839Z,10.50
2018-11-13T20:52:34.910Z,10.30
2018-11-13T20:55:03.212Z,10.30
2018-11-13T20:57:32.223Z,10.20
2018-11-13T21:00:00.510Z,10.20
2018-11-13T21:02:28.770Z,10.20
2018-11-13T21:04:56.983Z,10.20
2018-11-13T21:07:25.479Z,10.20
2018-11-13T21:09:54.166Z,10.10
2018-11-13T21:12:22.002Z,10.00
2018-11-13T21:14:50.281Z,10.00
2018-11-13T21:17:18.652Z,10.00
2018-11-13T21:19:46.821Z,10.00
2018-11-13T21:22:15.482Z,10.10
2018-11-13T21:24:44.093Z,10.10
2018-11-13T21:27:12.079Z,10.10
2018-11-13T21:29:41.068Z,10.00
2018-11-13T21:32:09.304Z,10.20
2018-11-13T21:34:37.583Z,9.80
2018-11-13T21:37:05.955Z,9.70
2018-11-13T21:39:34.122Z,9.60
2018-11-13T21:42:02.741Z,9.60
2018-11-13T21:44:30.997Z,9.60
2018-11-13T21:46:59.271Z,9.50
2018-11-13T21:49:27.531Z,9.60
2018-11-13T21:51:55.788Z,9.60
2018-11-13T21:54:24.840Z,9.60
2018-11-13T21:56:53.084Z,9.60
2018-11-13T21:59:22.143Z,9.50
2018-11-13T22:01:50.388Z,9.50
2018-11-13T22:04:18.730Z,9.40
2018-11-13T22:06:46.966Z,9.40
2018-11-13T22:09:15.231Z,9.50
2018-11-13T22:11:43.805Z,9.50
2018-11-13T22:14:12.060Z,9.40
2018-11-13T22:16:40.367Z,9.40
2018-11-13T22:19:09.304Z,9.30
2018-11-13T22:21:37.551Z,9.20
2018-11-13T22:24:06.570Z,9.30
2018-11-13T22:26:34.804Z,9.30
2018-11-13T22:29:03.155Z,9.30
2018-11-13T22:31:31.897Z,9.30
2018-11-13T22:34:00.174Z,9.30
2018-11-13T22:36:29.292Z,9.40
2018-11-13T22:38:57.462Z,9.40
2018-11-13T22:41:26.074Z,9.40
2018-11-13T22:43:54.305Z,9.30
2018-11-13T22:46:22.564Z,9.10
2018-11-13T22:48:51.567Z,9.10
2018-11-13T22:51:19.826Z,9.00
2018-11-13T22:53:48.905Z,9.10
2018-11-13T22:56:17.123Z,9.10
2018-11-13T22:58:45.598Z,9.00
2018-11-13T23:01:13.856Z,8.90
2018-11-13T23:03:42.073Z,8.90
2018-11-13T23:06:10.333Z,9.00
2018-11-13T23:08:38.561Z,8.90
2018-11-13T23:11:07.602Z,8.90
2018-11-13T23:13:35.863Z,8.90
2018-11-13T23:16:04.135Z,8.80
2018-11-13T23:18:33.126Z,8.90
2018-11-13T23:21:01.416Z,8.80
2018-11-13T23:23:30.033Z,8.90
2018-11-13T23:25:58.275Z,8.90
2018-11-13T23:28:26.533Z,8.90
2018-11-13T23:30:55.551Z,8.90
2018-11-13T23:33:23.803Z,8.90
2018-11-13T23:35:52.485Z,8.90
2018-11-13T23:38:20.688Z,8.90
2018-11-13T23:40:48.941Z,8.90
2018-11-13T23:43:17.199Z,8.80
2018-11-13T23:45:46.220Z,8.70
2018-11-13T23:48:14.487Z,8.70
2018-11-13T23:50:42.770Z,8.60
2018-11-13T23:53:11.026Z,8.60
2018-11-13T23:55:39.342Z,8.60
2018-11-13T23:58:08.550Z,8.40
